Time;durP1;ratioP1;P1;durP2;ratioP2;P2;SDS_P1;SDS_P2;PMS_P1;PMS_P2;Temp;Humidity;BMP_temperature;BMP_pressure;BME280_temperature;BME280_humidity;BME280_pressure;Samples;Min_cycle;Max_cycle;Signal;HPM_P1;HPM_P2
2022/11/18 00:00:14;;;;;;;2.17;1.40;;;;;14.30;99275.00;;;;5010458;28;20193;-77
2022/11/18 00:02:41;;;;;;;2.15;1.67;;;;;14.30;99281.00;;;;5016813;28;20208;-77
2022/11/18 00:05:08;;;;;;;2.53;1.00;;;;;14.30;99285.00;;;;5017008;28;20189;-77
2022/11/18 00:07:36;;;;;;;3.78;1.40;;;;;14.20;99289.00;;;;5010544;28;20211;-77
2022/11/18 00:10:03;;;;;;;3.05;1.67;;;;;14.20;99289.00;;;;5018885;28;20200;-77
2022/11/18 00:15:18;;;;;;;1.40;1.13;;;;;14.10;99308.00;;;;5010215;28;20195;-77
2022/11/18 00:17:45;;;;;;;2.78;1.67;;;;;14.10;99315.00;;;;5009126;28;20220;-77
2022/11/18 00:20:12;;;;;;;2.25;1.40;;;;;14.10;99313.00;;;;5017179;28;20193;-77
2022/11/18 00:22:40;;;;;;;1.67;1.55;;;;;14.10;99311.00;;;;5027794;28;20215;-77
2022/11/18 00:25:08;;;;;;;3.22;1.20;;;;;14.10;99320.00;;;;5013551;28;20692;-77
2022/11/18 00:27:35;;;;;;;2.75;1.50;;;;;14.10;99316.00;;;;5008622;28;20208;-77
2022/11/18 00:30:02;;;;;;;2.75;1.20;;;;;14.10;99321.00;;;;5015991;28;20203;-77
2022/11/18 00:32:31;;;;;;;3.67;1.70;;;;;14.00;99320.00;;;;5014905;28;20200;-77
2022/11/18 00:34:58;;;;;;;2.50;1.38;;;;;14.00;99323.00;;;;5012757;28;20208;-77
2022/11/18 00:37:25;;;;;;;4.93;1.10;;;;;14.00;99328.00;;;;5015188;28;20220;-77
2022/11/18 00:39:54;;;;;;;3.97;1.80;;;;;13.90;99324.00;;;;5011704;28;20201;-77
2022/11/18 00:45:07;;;;;;;2.35;1.33;;;;;13.90;99340.00;;;;5021325;28;20575;-77
2022/11/18 00:47:35;;;;;;;2.22;1.65;;;;;13.90;99338.00;;;;5020098;28;20204;-76
2022/11/18 00:50:03;;;;;;;2.40;1.55;;;;;13.90;99340.00;;;;5014759;28;20216;-77
2022/11/18 00:52:30;;;;;;;3.65;1.83;;;;;13.80;99339.00;;;;5019828;28;20200;-77
2022/11/18 00:54:57;;;;;;;2.47;1.67;;;;;13.80;99344.00;;;;5007293;28;20201;-77
2022/11/18 00:57:25;;;;;;;2.47;1.90;;;;;13.80;99352.00;;;;5007555;28;20221;-76
2022/11/18 00:59:52;;;;;;;4.18;2.22;;;;;13.80;99359.00;;;;5011604;28;20207;-76
2022/11/18 01:02:19;;;;;;;2.33;1.70;;;;;13.80;99364.00;;;;5012420;28;20196;-76
2022/11/18 01:04:48;;;;;;;3.08;1.98;;;;;13.70;99361.00;;;;5011294;28;20307;-76
2022/11/18 01:07:15;;;;;;;3.88;2.13;;;;;13.70;99359.00;;;;5007259;28;20189;-76
2022/11/18 01:09:42;;;;;;;6.15;2.20;;;;;13.70;99369.00;;;;5008175;28;20215;-76
2022/11/18 01:14:55;;;;;;;4.05;1.85;;;;;13.70;99369.00;;;;5016685;28;20211;-76
2022/11/18 01:17:23;;;;;;;2.78;1.50;;;;;13.60;99372.00;;;;5015136;28;20231;-76
2022/11/18 01:19:51;;;;;;;3.28;1.80;;;;;13.60;99387.00;;;;5008142;28;20197;-76
2022/11/18 01:22:19;;;;;;;4.07;2.17;;;;;13.60;99377.00;;;;5008682;28;20215;-76
2022/11/18 01:24:46;;;;;;;2.72;1.80;;;;;13.60;99381.00;;;;5022485;28;20211;-76
2022/11/18 01:27:13;;;;;;;3.22;1.92;;;;;13.60;99380.00;;;;5013590;28;20208;-76
2022/11/18 01:29:41;;;;;;;2.45;1.55;;;;;13.60;99383.00;;;;5009175;28;20211;-77
2022/11/18 01:32:08;;;;;;;2.47;1.85;;;;;13.60;99376.00;;;;5020540;28;20431;-77
2022/11/18 01:34:35;;;;;;;6.15;1.88;;;;;13.60;99385.00;;;;5027297;28;20242;-77
2022/11/18 01:37:04;;;;;;;2.35;1.63;;;;;13.60;99389.00;;;;5009858;28;20224;-76
2022/11/18 01:39:31;;;;;;;2.28;1.38;;;;;13.60;99394.00;;;;5008188;28;20213;-77
2022/11/18 01:41:59;;;;;;;2.95;1.80;;;;;13.60;99402.00;;;;5010677;28;20979;-77
2022/11/18 01:44:59;;;;;;;4.38;2.10;;;;;13.40;99399.00;;;;5011970;28;20699;-77
2022/11/18 01:47:30;;;;;;;2.45;1.63;;;;;13.50;99402.00;;;;5011988;28;20231;-77
2022/11/18 01:49:58;;;;;;;3.10;1.73;;;;;13.50;99400.00;;;;5008074;28;20212;-77
2022/11/18 01:52:28;;;;;;;4.03;1.75;;;;;13.50;99407.00;;;;5007300;28;20189;-76
2022/11/18 01:54:58;;;;;;;4.55;1.63;;;;;13.50;99398.00;;;;5008418;28;20208;-76
2022/11/18 01:57:29;;;;;;;2.90;1.45;;;;;13.50;99398.00;;;;5008050;28;20227;-77
2022/11/18 02:00:01;;;;;;;3.55;1.42;;;;;13.50;99406.00;;;;5024733;28;20262;-77
2022/11/18 02:02:32;;;;;;;2.15;1.25;;;;;13.50;99411.00;;;;5016384;28;21075;-77
2022/11/18 02:05:00;;;;;;;3.08;1.52;;;;;13.50;99412.00;;;;5008731;28;20208;-77
2022/11/18 02:07:29;;;;;;;1.98;1.50;;;;;13.50;99405.00;;;;5011050;28;20224;-77
2022/11/18 02:09:57;;;;;;;4.72;1.67;;;;;13.50;99410.00;;;;5007385;28;20197;-77
2022/11/18 02:12:25;;;;;;;3.03;1.58;;;;;13.50;99422.00;;;;5007224;28;20201;-77
2022/11/18 02:14:52;;;;;;;2.58;1.52;;;;;13.40;99419.00;;;;5007678;28;20676;-77
2022/11/18 02:17:33;;;;;;;1.83;1.60;;;;;13.40;99423.00;;;;5006984;28;20614;-77
2022/11/18 02:20:29;;;;;;;3.03;1.70;;;;;13.30;99427.00;;;;5007268;28;20705;-76
2022/11/18 02:23:47;;;;;;;2.53;1.30;;;;;13.30;99425.00;;;;5019710;28;20200;-77
2022/11/18 02:26:48;;;;;;;2.65;1.65;;;;;13.30;99429.00;;;;4910794;29;20207;-77
2022/11/18 02:29:20;;;;;;;2.10;1.10;;;;;13.40;99429.00;;;;5007729;28;20196;-77
2022/11/18 02:31:55;;;;;;;2.60;1.35;;;;;13.40;99426.00;;;;5012126;28;20197;-77
2022/11/18 02:34:32;;;;;;;2.47;1.50;;;;;13.30;99428.00;;;;5009277;28;20587;-77
2022/11/18 02:37:04;;;;;;;2.70;1.35;;;;;13.40;99428.00;;;;5021876;28;20243;-77
2022/11/18 02:39:37;;;;;;;2.22;1.30;;;;;13.30;99429.00;;;;5008208;28;20296;-77
2022/11/18 02:42:09;;;;;;;2.70;1.67;;;;;13.30;99430.00;;;;5010189;28;20694;-77
2022/11/18 02:44:40;;;;;;;2.33;1.25;;;;;13.40;99434.00;;;;5011111;28;20646;-77
2022/11/18 02:47:12;;;;;;;1.80;1.30;;;;;13.40;99431.00;;;;5020427;28;20304;-77
2022/11/18 02:49:42;;;;;;;2.45;1.40;;;;;13.40;99446.00;;;;5015745;28;20232;-77
2022/11/18 02:52:11;;;;;;;4.10;1.73;;;;;13.40;99453.00;;;;5018107;28;20694;-77
2022/11/18 02:54:42;;;;;;;2.90;1.70;;;;;13.40;99445.00;;;;5030335;28;20204;-77
2022/11/18 02:57:09;;;;;;;2.78;1.67;;;;;13.40;99440.00;;;;5026724;28;20239;-77
2022/11/18 02:59:38;;;;;;;3.78;1.40;;;;;13.40;99445.00;;;;5030136;28;20234;-77
2022/11/18 03:02:05;;;;;;;1.75;1.35;;;;;13.40;99445.00;;;;5017032;28;20765;-77
2022/11/18 03:04:34;;;;;;;3.28;1.77;;;;;13.40;99447.00;;;;5027627;28;20200;-77
2022/11/18 03:07:09;;;;;;;3.17;1.42;;;;;13.30;99457.00;;;;5024004;28;20200;-77
2022/11/18 03:09:38;;;;;;;3.45;1.35;;;;;13.40;99460.00;;;;5019257;28;21094;-77
2022/11/18 03:12:12;;;;;;;2.30;1.40;;;;;13.30;99455.00;;;;5011193;28;20664;-77
2022/11/18 03:14:49;;;;;;;2.42;1.55;;;;;13.30;99462.00;;;;5011457;28;20197;-77
2022/11/18 03:17:25;;;;;;;2.58;1.35;;;;;13.40;99470.00;;;;5029670;28;20220;-77
2022/11/18 03:20:03;;;;;;;2.35;1.48;;;;;13.40;99473.00;;;;5030096;28;20203;-76
2022/11/18 03:22:36;;;;;;;2.50;1.25;;;;;13.40;99479.00;;;;5010278;28;20200;-77
2022/11/18 03:25:08;;;;;;;1.25;1.15;;;;;13.40;99478.00;;;;5010799;28;20193;-77
2022/11/18 03:27:40;;;;;;;3.95;1.60;;;;;13.40;99480.00;;;;5013573;28;20384;-77
2022/11/18 03:30:13;;;;;;;1.65;1.40;;;;;13.40;99487.00;;;;5016041;28;20208;-77
2022/11/18 03:32:44;;;;;;;1.70;1.08;;;;;13.40;99485.00;;;;5009352;28;20201;-77
2022/11/18 03:35:16;;;;;;;2.60;1.35;;;;;13.40;99482.00;;;;5010823;28;20293;-77
2022/11/18 03:37:45;;;;;;;3.22;1.30;;;;;13.40;99489.00;;;;5010027;28;20228;-76
2022/11/18 03:40:17;;;;;;;1.58;1.33;;;;;13.50;99491.00;;;;5009077;28;20217;-78
2022/11/18 03:42:48;;;;;;;1.65;1.33;;;;;13.50;99499.00;;;;5010070;28;20298;-78
2022/11/18 03:45:22;;;;;;;2.05;1.48;;;;;13.40;99501.00;;;;5010587;28;20201;-78
2022/11/18 03:47:54;;;;;;;4.05;1.42;;;;;13.40;99499.00;;;;5015890;28;20211;-77
2022/11/18 03:50:26;;;;;;;2.03;1.45;;;;;13.40;99509.00;;;;5020464;28;20225;-77
2022/11/18 03:52:54;;;;;;;2.13;1.50;;;;;13.40;99513.00;;;;5009941;28;20205;-78
2022/11/18 03:55:26;;;;;;;2.50;1.50;;;;;13.40;99516.00;;;;5016215;28;20200;-77
2022/11/18 03:58:00;;;;;;;2.70;1.80;;;;;13.40;99526.00;;;;5019462;28;20232;-78
2022/11/18 04:00:34;;;;;;;1.90;1.15;;;;;13.40;99517.00;;;;5011263;28;20676;-78
2022/11/18 04:03:01;;;;;;;2.25;1.77;;;;;13.40;99525.00;;;;5010909;28;20633;-78
2022/11/18 04:05:31;;;;;;;2.38;1.45;;;;;13.40;99524.00;;;;5011421;28;20209;-78
2022/11/18 04:08:01;;;;;;;1.67;1.00;;;;;13.30;99520.00;;;;5021519;28;20219;-78
2022/11/18 04:10:33;;;;;;;4.38;1.35;;;;;13.30;99525.00;;;;5018468;28;20647;-78
2022/11/18 04:13:05;;;;;;;2.08;1.33;;;;;13.30;99531.00;;;;5013084;28;20208;-78
2022/11/18 04:15:36;;;;;;;2.17;1.40;;;;;13.30;99531.00;;;;5013303;28;20200;-78
2022/11/18 04:18:04;;;;;;;2.47;1.23;;;;;13.30;99531.00;;;;5023408;28;20228;-78
2022/11/18 04:20:32;;;;;;;1.50;1.17;;;;;13.30;99536.00;;;;5017876;28;20881;-78
2022/11/18 04:23:00;;;;;;;1.70;1.40;;;;;13.30;99536.00;;;;5009970;28;20205;-78
2022/11/18 04:25:27;;;;;;;3.88;1.60;;;;;13.30;99539.00;;;;5019780;28;20200;-78
2022/11/18 04:27:55;;;;;;;1.90;1.38;;;;;13.30;99537.00;;;;5009834;28;20204;-78
2022/11/18 04:30:22;;;;;;;2.00;1.35;;;;;13.30;99542.00;;;;5021767;28;20186;-78
2022/11/18 04:32:50;;;;;;;3.67;1.40;;;;;13.20;99554.00;;;;5009165;28;20263;-78
2022/11/18 04:35:18;;;;;;;2.08;1.30;;;;;13.20;99556.00;;;;5019062;28;20655;-76
2022/11/18 04:37:45;;;;;;;2.92;1.55;;;;;13.20;99561.00;;;;5011847;28;20228;-75
2022/11/18 04:40:13;;;;;;;2.20;1.38;;;;;13.20;99563.00;;;;5029270;28;20204;-75
2022/11/18 04:42:40;;;;;;;1.85;1.10;;;;;13.20;99576.00;;;;5011474;28;20212;-75
2022/11/18 04:45:09;;;;;;;2.00;1.30;;;;;13.10;99575.00;;;;5022192;28;20193;-75
2022/11/18 04:47:37;;;;;;;2.10;1.02;;;;;13.10;99573.00;;;;5009656;28;20197;-75
2022/11/18 04:50:06;;;;;;;3.83;1.30;;;;;13.10;99579.00;;;;5009192;28;20714;-75
2022/11/18 04:52:33;;;;;;;2.35;1.55;;;;;13.10;99578.00;;;;5006795;28;20194;-75
2022/11/18 04:55:01;;;;;;;3.67;1.35;;;;;13.10;99578.00;;;;5008850;28;20205;-75
2022/11/18 04:57:28;;;;;;;2.33;1.35;;;;;13.10;99580.00;;;;5008375;28;20228;-75
2022/11/18 04:59:55;;;;;;;1.70;1.02;;;;;13.00;99583.00;;;;5007807;28;20201;-75
2022/11/18 05:02:22;;;;;;;3.33;1.02;;;;;13.00;99586.00;;;;5008936;28;20206;-78
2022/11/18 05:04:50;;;;;;;2.10;1.17;;;;;13.00;99583.00;;;;5011272;28;20219;-78
2022/11/18 05:07:18;;;;;;;2.15;1.40;;;;;13.00;99591.00;;;;5018673;28;20208;-78
2022/11/18 05:09:45;;;;;;;2.13;1.05;;;;;13.00;99592.00;;;;5015631;28;20211;-78
2022/11/18 05:14:59;;;;;;;2.35;1.20;;;;;13.00;99594.00;;;;5012065;28;20207;-78
2022/11/18 05:17:26;;;;;;;3.00;1.52;;;;;13.00;99599.00;;;;5010879;28;20225;-78
2022/11/18 05:19:53;;;;;;;2.03;1.50;;;;;13.00;99600.00;;;;5018657;28;20185;-78
2022/11/18 05:22:22;;;;;;;1.88;1.42;;;;;12.90;99602.00;;;;5010006;28;20217;-78
2022/11/18 05:24:50;;;;;;;1.75;1.30;;;;;12.90;99606.00;;;;5019390;28;20206;-78
2022/11/18 05:27:17;;;;;;;3.80;1.50;;;;;12.90;99616.00;;;;5007689;28;20207;-78
2022/11/18 05:29:44;;;;;;;1.35;1.20;;;;;12.90;99610.00;;;;5012766;28;20204;-78
2022/11/18 05:32:12;;;;;;;1.88;1.30;;;;;12.90;99610.00;;;;5008401;28;20247;-78
2022/11/18 05:34:40;;;;;;;1.95;1.40;;;;;12.90;99620.00;;;;5009337;28;20248;-78
2022/11/18 05:37:08;;;;;;;1.73;1.40;;;;;12.80;99619.00;;;;5020117;28;20200;-78
2022/11/18 05:39:36;;;;;;;2.05;1.33;;;;;12.80;99625.00;;;;5007540;28;20188;-78
2022/11/18 05:44:49;;;;;;;1.52;1.20;;;;;12.80;99620.00;;;;5005799;28;20562;-78
2022/11/18 05:47:17;;;;;;;2.58;1.08;;;;;12.80;99629.00;;;;5008001;28;20204;-78
2022/11/18 05:49:44;;;;;;;2.28;1.30;;;;;12.80;99632.00;;;;5011374;28;20220;-78
2022/11/18 05:52:11;;;;;;;1.88;1.40;;;;;12.80;99634.00;;;;5019097;28;20196;-78
2022/11/18 05:54:45;;;;;;;2.75;1.65;;;;;12.70;99637.00;;;;5008060;28;20193;-78
2022/11/18 05:57:12;;;;;;;2.10;1.33;;;;;12.70;99647.00;;;;5016094;28;20208;-78
2022/11/18 05:59:39;;;;;;;2.22;1.33;;;;;12.70;99642.00;;;;5013596;28;20197;-78
2022/11/18 06:02:12;;;;;;;1.55;1.23;;;;;12.70;99652.00;;;;5016789;28;20223;-78
2022/11/18 06:04:42;;;;;;;1.63;1.00;;;;;12.70;99648.00;;;;5007635;28;20201;-78
2022/11/18 06:07:14;;;;;;;2.35;1.30;;;;;12.70;99653.00;;;;5014131;28;20197;-78
2022/11/18 06:09:48;;;;;;;2.83;1.38;;;;;12.70;99654.00;;;;5024208;28;20211;-78
2022/11/18 06:12:17;;;;;;;1.58;1.20;;;;;12.70;99658.00;;;;5011937;28;20213;-78
2022/11/18 06:14:48;;;;;;;1.98;1.40;;;;;12.60;99661.00;;;;5005437;28;20204;-79
2022/11/18 06:17:19;;;;;;;2.25;1.60;;;;;12.70;99670.00;;;;5011209;28;20208;-78
2022/11/18 06:19:46;;;;;;;2.22;1.60;;;;;12.70;99668.00;;;;5017633;28;20200;-80
2022/11/18 06:22:14;;;;;;;1.95;1.33;;;;;12.60;99667.00;;;;5015495;28;20197;-79
2022/11/18 06:24:44;;;;;;;1.85;1.23;;;;;12.60;99676.00;;;;5012075;28;20650;-79
2022/11/18 06:27:12;;;;;;;2.42;1.35;;;;;12.60;99671.00;;;;5012929;28;20205;-79
2022/11/18 06:29:39;;;;;;;2.03;1.20;;;;;12.60;99680.00;;;;5018979;28;21224;-79
2022/11/18 06:32:07;;;;;;;2.00;1.30;;;;;12.60;99680.00;;;;5011337;28;20197;-79
2022/11/18 06:34:34;;;;;;;2.28;1.33;;;;;12.60;99687.00;;;;5021986;28;20224;-79
2022/11/18 06:37:12;;;;;;;2.35;1.13;;;;;12.50;99695.00;;;;5027015;28;20204;-79
2022/11/18 06:39:41;;;;;;;1.90;1.30;;;;;12.60;99695.00;;;;5012782;28;20586;-79
2022/11/18 06:42:08;;;;;;;2.42;1.42;;;;;12.60;99699.00;;;;5025867;28;20678;-79
2022/11/18 06:44:35;;;;;;;1.40;1.15;;;;;12.60;99706.00;;;;5025766;28;20193;-79
2022/11/18 06:47:04;;;;;;;2.25;1.25;;;;;12.60;99707.00;;;;5012890;28;20205;-79
2022/11/18 06:49:31;;;;;;;1.45;1.13;;;;;12.60;99712.00;;;;5015832;28;20212;-80
2022/11/18 06:51:58;;;;;;;3.35;1.20;;;;;12.60;99714.00;;;;5012495;28;20212;-78
2022/11/18 06:54:26;;;;;;;2.15;1.38;;;;;12.60;99717.00;;;;5014784;28;20204;-78
2022/11/18 06:56:54;;;;;;;1.63;1.05;;;;;12.50;99724.00;;;;5023789;28;20204;-78
2022/11/18 06:59:23;;;;;;;1.35;1.20;;;;;12.60;99721.00;;;;5017074;28;20228;-77
2022/11/18 07:01:51;;;;;;;2.05;1.20;;;;;12.50;99730.00;;;;5011964;28;20296;-78
2022/11/18 07:04:19;;;;;;;1.65;1.38;;;;;12.60;99737.00;;;;5015570;28;20282;-78
2022/11/18 07:06:46;;;;;;;2.40;1.20;;;;;12.50;99743.00;;;;5014048;28;20239;-78
2022/11/18 07:09:13;;;;;;;2.30;1.45;;;;;12.60;99749.00;;;;5031029;28;20258;-79
2022/11/18 07:11:41;;;;;;;5.28;1.40;;;;;12.60;99754.00;;;;5029754;28;20204;-79
2022/11/18 07:14:10;;;;;;;2.63;1.23;;;;;12.50;99750.00;;;;5030492;28;20196;-79
2022/11/18 07:16:37;;;;;;;2.95;1.25;;;;;12.60;99752.00;;;;5029476;28;20207;-79
2022/11/18 07:19:10;;;;;;;4.25;1.33;;;;;12.60;99755.00;;;;5030464;28;20219;-79
2022/11/18 07:21:38;;;;;;;2.25;1.23;;;;;12.60;99756.00;;;;5030204;28;20286;-79
2022/11/18 07:24:07;;;;;;;1.80;1.20;;;;;12.60;99760.00;;;;5024352;28;20220;-79
2022/11/18 07:26:35;;;;;;;2.97;2.00;;;;;12.70;99763.00;;;;5010483;28;20197;-78
2022/11/18 07:29:03;;;;;;;6.38;1.67;;;;;12.70;99764.00;;;;5019222;28;20862;-78
2022/11/18 07:31:32;;;;;;;3.95;1.63;;;;;12.70;99773.00;;;;5030298;28;20200;-78
2022/11/18 07:34:00;;;;;;;1.58;1.10;;;;;12.80;99778.00;;;;5030565;28;20788;-79
2022/11/18 07:36:28;;;;;;;3.15;1.50;;;;;12.80;99784.00;;;;5030450;28;20201;-79
2022/11/18 07:38:58;;;;;;;3.10;2.00;;;;;12.80;99779.00;;;;5030001;28;20318;-79
2022/11/18 07:41:27;;;;;;;3.08;1.63;;;;;12.80;99786.00;;;;5020457;28;20201;-79
2022/11/18 07:43:56;;;;;;;2.58;1.75;;;;;12.80;99793.00;;;;5010655;28;20205;-79
2022/11/18 07:46:25;;;;;;;2.58;1.65;;;;;12.90;99795.00;;;;5008924;28;20555;-79
2022/11/18 07:48:55;;;;;;;3.42;1.45;;;;;12.90;99797.00;;;;5009955;28;20208;-79
2022/11/18 07:51:24;;;;;;;3.67;1.70;;;;;12.90;99803.00;;;;5008738;28;20220;-79
2022/11/18 07:53:52;;;;;;;2.95;1.90;;;;;13.00;99803.00;;;;5010121;28;20692;-80
2022/11/18 07:56:20;;;;;;;5.20;1.90;;;;;13.00;99803.00;;;;5008863;28;20211;-79
2022/11/18 07:58:50;;;;;;;3.97;2.38;;;;;13.10;99804.00;;;;5021688;28;20902;-79
2022/11/18 08:01:20;;;;;;;2.63;1.38;;;;;13.10;99810.00;;;;5029305;28;20204;-79
2022/11/18 08:03:47;;;;;;;3.35;1.58;;;;;13.20;99817.00;;;;5019350;28;20197;-79
2022/11/18 08:06:19;;;;;;;2.75;1.67;;;;;13.10;99821.00;;;;5009656;28;20204;-79
2022/11/18 08:08:47;;;;;;;4.10;1.80;;;;;13.20;99830.00;;;;5009211;28;20666;-79
2022/11/18 08:11:17;;;;;;;2.35;1.42;;;;;13.30;99827.00;;;;5009760;28;20208;-79
2022/11/18 08:13:45;;;;;;;2.33;1.58;;;;;13.30;99838.00;;;;5009336;28;20208;-79
2022/11/18 08:16:14;;;;;;;1.33;1.15;;;;;13.40;99838.00;;;;5018417;28;20678;-79
2022/11/18 08:18:42;;;;;;;2.75;1.77;;;;;13.40;99843.00;;;;5024274;28;20228;-79
2022/11/18 08:21:09;;;;;;;2.33;1.30;;;;;13.50;99849.00;;;;5029006;28;20204;-79
2022/11/18 08:23:38;;;;;;;2.70;1.52;;;;;13.50;99843.00;;;;5028846;28;20212;-78
2022/11/18 08:26:07;;;;;;;2.20;1.20;;;;;13.60;99849.00;;;;5028685;28;20674;-78
2022/11/18 08:28:35;;;;;;;1.90;1.48;;;;;13.70;99856.00;;;;5014040;28;20208;-78
2022/11/18 08:31:09;;;;;;;3.97;1.95;;;;;13.60;99862.00;;;;5016470;28;20208;-78
2022/11/18 08:33:36;;;;;;;2.95;1.33;;;;;13.80;99861.00;;;;5008812;28;20320;-78
2022/11/18 08:36:07;;;;;;;2.45;1.58;;;;;13.80;99868.00;;;;5009472;28;20201;-78
2022/11/18 08:38:34;;;;;;;2.00;1.50;;;;;13.90;99867.00;;;;5018366;28;20228;-78
2022/11/18 08:41:04;;;;;;;1.63;1.40;;;;;13.90;99872.00;;;;5028286;28;20200;-78
2022/11/18 08:43:33;;;;;;;1.60;1.50;;;;;13.90;99873.00;;;;5028584;28;20659;-79
2022/11/18 08:46:00;;;;;;;2.90;1.48;;;;;14.00;99870.00;;;;5021662;28;20193;-78
2022/11/18 08:48:28;;;;;;;2.35;1.30;;;;;14.10;99870.00;;;;5008603;28;20212;-78
2022/11/18 08:50:55;;;;;;;4.22;1.60;;;;;14.10;99869.00;;;;5008942;28;20213;-78
2022/11/18 08:53:22;;;;;;;1.75;1.50;;;;;14.10;99883.00;;;;5008641;28;20205;-77
2022/11/18 08:55:56;;;;;;;3.70;2.40;;;;;14.10;99877.00;;;;5027017;28;20196;-78
2022/11/18 08:58:25;;;;;;;2.35;1.42;;;;;14.20;99880.00;;;;5027946;28;20260;-79
2022/11/18 09:00:52;;;;;;;3.28;1.60;;;;;14.30;99886.00;;;;5017181;28;20193;-79
2022/11/18 09:03:20;;;;;;;2.67;1.33;;;;;14.30;99883.00;;;;5026449;28;20211;-79
2022/11/18 09:05:47;;;;;;;3.83;1.70;;;;;14.40;99883.00;;;;5024497;28;20208;-78
2022/11/18 09:08:15;;;;;;;2.28;1.35;;;;;14.40;99891.00;;;;5008883;28;20201;-78
2022/11/18 09:10:42;;;;;;;3.50;1.65;;;;;14.40;99896.00;;;;5016391;28;20200;-79
2022/11/18 09:13:09;;;;;;;1.88;1.40;;;;;14.50;99891.00;;;;5028253;28;20207;-79
2022/11/18 09:15:38;;;;;;;2.42;1.55;;;;;14.50;99902.00;;;;5018942;28;20191;-78
2022/11/18 09:18:05;;;;;;;2.35;1.23;;;;;14.60;99902.00;;;;5008819;28;20201;-78
2022/11/18 09:20:33;;;;;;;3.72;1.80;;;;;14.60;99906.00;;;;5007742;28;20347;-79
2022/11/18 09:23:00;;;;;;;2.30;1.58;;;;;14.70;99910.00;;;;5013915;28;20673;-79
2022/11/18 09:25:27;;;;;;;1.92;1.67;;;;;14.70;99912.00;;;;5028239;28;20204;-78
2022/11/18 09:27:55;;;;;;;3.25;1.88;;;;;14.70;99919.00;;;;5028351;28;20200;-78
2022/11/18 09:30:22;;;;;;;3.05;1.80;;;;;14.70;99928.00;;;;5016244;28;20201;-78
2022/11/18 09:32:51;;;;;;;2.60;1.65;;;;;14.70;99922.00;;;;5009222;28;20592;-78
2022/11/18 09:35:18;;;;;;;2.58;1.67;;;;;14.80;99929.00;;;;5008632;28;20536;-78
2022/11/18 09:37:45;;;;;;;6.25;1.48;;;;;14.80;99926.00;;;;5008761;28;20197;-78
2022/11/18 09:40:18;;;;;;;2.25;1.70;;;;;14.70;99937.00;;;;5015759;28;20239;-78
2022/11/18 09:42:56;;;;;;;3.05;1.50;;;;;14.80;99933.00;;;;5027116;28;20662;-78
2022/11/18 09:45:28;;;;;;;2.42;1.63;;;;;14.80;99938.00;;;;5027739;28;20208;-78
2022/11/18 09:48:00;;;;;;;3.03;1.75;;;;;14.80;99936.00;;;;5027956;28;20204;-78
2022/11/18 09:50:27;;;;;;;3.22;1.52;;;;;14.90;99933.00;;;;5029598;28;20212;-78
2022/11/18 09:53:07;;;;;;;3.78;1.42;;;;;14.80;99932.00;;;;5032320;28;20577;-78
2022/11/18 09:55:37;;;;;;;3.28;1.70;;;;;14.90;99943.00;;;;5031077;28;20200;-78
2022/11/18 09:58:05;;;;;;;3.35;1.58;;;;;14.90;99947.00;;;;5012278;28;20212;-78
2022/11/18 10:00:33;;;;;;;2.53;1.60;;;;;14.90;99952.00;;;;5012178;28;20225;-78
2022/11/18 10:03:05;;;;;;;7.30;1.70;;;;;15.00;99957.00;;;;5012835;28;20277;-78
2022/11/18 10:05:41;;;;;;;2.47;1.73;;;;;15.00;99957.00;;;;5012009;28;20193;-78
2022/11/18 10:08:21;;;;;;;5.22;2.03;;;;;15.00;99960.00;;;;5012233;28;20197;-78
2022/11/18 10:10:56;;;;;;;3.67;1.80;;;;;15.10;99963.00;;;;5019767;28;20203;-78
2022/11/18 10:13:34;;;;;;;2.83;1.80;;;;;15.10;99969.00;;;;5030667;28;20270;-78
2022/11/18 10:16:10;;;;;;;5.70;1.77;;;;;15.20;99968.00;;;;5020010;28;20671;-78
2022/11/18 10:18:45;;;;;;;2.55;2.08;;;;;15.30;99975.00;;;;5010860;28;20682;-79
2022/11/18 10:21:24;;;;;;;2.63;1.58;;;;;15.30;99980.00;;;;5011408;28;20197;-78
2022/11/18 10:23:54;;;;;;;3.78;1.90;;;;;15.40;99979.00;;;;5011621;28;20204;-78
2022/11/18 10:26:36;;;;;;;2.40;1.63;;;;;15.40;99980.00;;;;5011304;28;20189;-78
2022/11/18 10:29:06;;;;;;;2.65;1.63;;;;;15.60;99986.00;;;;5025795;28;20196;-79
2022/11/18 10:31:36;;;;;;;3.20;1.55;;;;;15.60;99989.00;;;;5020623;28;20208;-79
2022/11/18 10:34:05;;;;;;;7.63;1.92;;;;;15.70;99989.00;;;;5011686;28;20233;-78
2022/11/18 10:36:34;;;;;;;4.97;1.90;;;;;15.80;99992.00;;;;5010928;28;20574;-78
2022/11/18 10:39:13;;;;;;;3.63;1.70;;;;;15.80;99991.00;;;;5011271;28;20221;-79
2022/11/18 10:41:45;;;;;;;2.70;1.40;;;;;15.90;99990.00;;;;5011020;28;20251;-78
2022/11/18 10:44:37;;;;;;;3.75;1.90;;;;;15.90;99997.00;;;;5010330;28;20671;-78
2022/11/18 10:47:28;;;;;;;4.55;1.92;;;;;15.90;100001.00;;;;5011005;28;20201;-78
2022/11/18 10:50:00;;;;;;;3.28;2.22;;;;;16.00;100010.00;;;;5011232;28;20213;-78
2022/11/18 10:52:28;;;;;;;3.45;1.77;;;;;16.10;100004.00;;;;5010484;28;20201;-78
2022/11/18 10:55:22;;;;;;;4.47;2.10;;;;;16.00;100002.00;;;;5011324;28;20197;-78
2022/11/18 10:57:53;;;;;;;4.20;2.00;;;;;16.20;100015.00;;;;5013201;28;20200;-78
2022/11/18 11:00:42;;;;;;;2.58;1.80;;;;;16.10;100008.00;;;;5030182;28;20236;-78
2022/11/18 11:03:33;;;;;;;2.05;1.45;;;;;16.10;100006.00;;;;5013643;28;20205;-78
2022/11/18 11:06:33;;;;;;;6.38;2.00;;;;;16.20;100014.00;;;;5010542;28;20541;-78
2022/11/18 11:09:03;;;;;;;3.20;1.40;;;;;16.30;100010.00;;;;5010042;28;20765;-78
2022/11/18 11:11:32;;;;;;;2.63;2.08;;;;;16.40;100013.00;;;;5022185;28;20204;-78
2022/11/18 11:14:20;;;;;;;3.03;1.75;;;;;16.40;100019.00;;;;5030132;28;20644;-78
2022/11/18 11:16:56;;;;;;;3.83;1.70;;;;;16.50;100016.00;;;;5030009;28;20949;-78
2022/11/18 11:19:27;;;;;;;3.45;2.33;;;;;16.50;100022.00;;;;5028082;28;20238;-78
2022/11/18 11:21:57;;;;;;;4.55;1.70;;;;;16.50;100025.00;;;;5014974;28;20197;-78
2022/11/18 11:24:27;;;;;;;2.88;2.10;;;;;16.60;100015.00;;;;5028706;28;20204;-78
2022/11/18 11:27:05;;;;;;;3.45;1.65;;;;;16.60;100018.00;;;;5014593;28;20692;-78
2022/11/18 11:29:57;;;;;;;4.03;2.00;;;;;16.50;100024.00;;;;5022346;28;20196;-78
2022/11/18 11:32:35;;;;;;;3.00;1.77;;;;;16.60;100022.00;;;;5009821;28;20205;-79
2022/11/18 11:35:12;;;;;;;5.05;2.05;;;;;16.60;100031.00;;;;5010347;28;20196;-78
2022/11/18 11:37:50;;;;;;;4.50;2.25;;;;;16.70;100022.00;;;;5009674;28;20224;-78
2022/11/18 11:40:28;;;;;;;2.75;1.67;;;;;16.80;100028.00;;;;5010232;28;20231;-78
2022/11/18 11:43:08;;;;;;;4.95;2.15;;;;;16.90;100018.00;;;;5025295;28;20196;-78
2022/11/18 11:45:42;;;;;;;5.72;2.15;;;;;17.00;100028.00;;;;5028907;28;20395;-78
2022/11/18 11:48:24;;;;;;;3.03;1.75;;;;;17.10;100026.00;;;;5010491;28;20195;-78
2022/11/18 11:50:57;;;;;;;3.05;1.73;;;;;17.20;100029.00;;;;5009333;28;20659;-78
2022/11/18 11:53:49;;;;;;;3.08;1.83;;;;;17.20;100036.00;;;;5010139;28;20209;-78
2022/11/18 11:56:24;;;;;;;7.30;2.00;;;;;17.30;100031.00;;;;5010096;28;20201;-78
2022/11/18 11:59:06;;;;;;;4.22;2.00;;;;;17.20;100039.00;;;;5009418;28;20207;-78
2022/11/18 12:01:42;;;;;;;2.85;2.03;;;;;17.30;100038.00;;;;5009302;28;20216;-78
2022/11/18 12:04:23;;;;;;;2.78;1.73;;;;;17.30;100035.00;;;;5009965;28;20215;-78
2022/11/18 12:06:53;;;;;;;4.30;1.85;;;;;17.40;100044.00;;;;5009225;28;20201;-78
2022/11/18 12:09:34;;;;;;;3.00;1.85;;;;;17.40;100036.00;;;;5009566;28;20763;-78
2022/11/18 12:12:33;;;;;;;2.63;1.60;;;;;17.40;100046.00;;;;5008815;28;20193;-78
2022/11/18 12:15:00;;;;;;;3.58;2.10;;;;;17.40;100043.00;;;;5027459;28;20288;-78
2022/11/18 12:17:34;;;;;;;3.20;2.13;;;;;17.40;100047.00;;;;5008430;28;20189;-77
2022/11/18 12:20:24;;;;;;;5.63;2.00;;;;;17.50;100048.00;;;;5008227;28;21283;-78
2022/11/18 12:23:11;;;;;;;3.60;2.28;;;;;17.40;100051.00;;;;5009131;28;20197;-78
2022/11/18 12:26:00;;;;;;;2.70;1.95;;;;;17.50;100050.00;;;;5008921;28;20216;-78
2022/11/18 12:28:31;;;;;;;2.60;2.40;;;;;17.50;100060.00;;;;5008440;28;20197;-78
2022/11/18 12:31:41;;;;;;;2.65;2.13;;;;;17.50;100060.00;;;;5009705;28;20213;-78
2022/11/18 12:34:33;;;;;;;5.30;2.55;;;;;17.40;100067.00;;;;5008211;28;20602;-78
2022/11/18 12:37:48;;;;;;;4.63;2.33;;;;;17.40;100065.00;;;;5009451;28;20201;-78
2022/11/18 12:40:40;;;;;;;3.17;2.30;;;;;17.40;100068.00;;;;4928792;29;20250;-78
2022/11/18 12:43:47;;;;;;;5.18;2.67;;;;;17.40;100065.00;;;;4945630;29;20210;-78
2022/11/18 12:46:48;;;;;;;3.97;2.63;;;;;17.40;100067.00;;;;5012582;28;20342;-78
2022/11/18 12:49:52;;;;;;;3.13;2.65;;;;;17.30;100077.00;;;;5008741;28;20239;-78
2022/11/18 12:52:52;;;;;;;3.63;3.17;;;;;17.30;100082.00;;;;5008973;28;20207;-78